Terminal Aerodrome Forecast
Issued by NWS

Home | Current Version | Previous Version | Text Only | Print | Product List | Glossary On
Versions: 1 2 3 4 5 6 7 8 9 10 11 12 13 14 15 16
527
FTUS42 KTBW 220536
TAFRSW
TAF
KRSW 220536Z 2206/2306 08006KT P6SM FEW025
     FM220900 06004KT 6SM BR FEW010
      TEMPO 2209/2213 4SM BR
     FM221400 09008KT P6SM SCT025
     FM221800 10012KT P6SM SCT050
     FM230200 09005KT P6SM SKC=

USA.gov is the U.S. government's official web portal to all federal, state and local government web resources and services.